sensor_id;sensor_type;location;lat;lon;timestamp;pressure;altitude;pressure_sealevel;temperature;humidity
64340;BME280;63709;53.258;-8.814;2023-04-01T00:00:30;100432.78;;;13.79;100.00
64340;BME280;63709;53.258;-8.814;2023-04-01T00:02:57;100433.09;;;13.76;100.00
64340;BME280;63709;53.258;-8.814;2023-04-01T00:05:23;100445.91;;;13.82;100.00
64340;BME280;63709;53.258;-8.814;2023-04-01T00:07:51;100443.66;;;13.77;100.00
64340;BME280;63709;53.258;-8.814;2023-04-01T00:10:17;100444.78;;;13.85;100.00
64340;BME280;63709;53.258;-8.814;2023-04-01T00:12:43;100444.78;;;13.85;100.00
64340;BME280;63709;53.258;-8.814;2023-04-01T00:15:11;100444.78;;;13.85;100.00
64340;BME280;63709;53.258;-8.814;2023-04-01T00:17:37;100436.34;;;13.79;100.00
64340;BME280;63709;53.258;-8.814;2023-04-01T00:20:05;100449.84;;;13.88;100.00
64340;BME280;63709;53.258;-8.814;2023-04-01T00:22:31;100443.50;;;13.89;100.00
64340;BME280;63709;53.258;-8.814;2023-04-01T00:24:56;100452.50;;;13.97;100.00
64340;BME280;63709;53.258;-8.814;2023-04-01T00:27:24;100451.09;;;13.93;100.00
64340;BME280;63709;53.258;-8.814;2023-04-01T00:29:50;100457.84;;;13.97;100.00
64340;BME280;63709;53.258;-8.814;2023-04-01T00:32:16;100447.84;;;13.90;100.00
64340;BME280;63709;53.258;-8.814;2023-04-01T00:34:42;100452.94;;;13.93;100.00
64340;BME280;63709;53.258;-8.814;2023-04-01T00:37:09;100466.47;;;14.01;100.00
64340;BME280;63709;53.258;-8.814;2023-04-01T00:39:35;100457.56;;;14.00;100.00
64340;BME280;63709;53.258;-8.814;2023-04-01T00:42:02;100465.50;;;14.02;100.00
64340;BME280;63709;53.258;-8.814;2023-04-01T00:44:31;100466.19;;;14.04;100.00
64340;BME280;63709;53.258;-8.814;2023-04-01T00:46:58;100464.88;;;14.08;100.00
64340;BME280;63709;53.258;-8.814;2023-04-01T00:49:34;100470.69;;;14.03;100.00
64340;BME280;63709;53.258;-8.814;2023-04-01T00:52:02;100465.63;;;14.00;100.00
64340;BME280;63709;53.258;-8.814;2023-04-01T00:54:31;100469.56;;;14.06;100.00
64340;BME280;63709;53.258;-8.814;2023-04-01T00:57:06;100476.19;;;14.12;100.00
64340;BME280;63709;53.258;-8.814;2023-04-01T00:59:35;100473.81;;;13.99;100.00
64340;BME280;63709;53.258;-8.814;2023-04-01T01:02:05;100479.31;;;14.07;100.00
64340;BME280;63709;53.258;-8.814;2023-04-01T01:04:34;100462.38;;;13.97;100.00
64340;BME280;63709;53.258;-8.814;2023-04-01T01:07:09;100478.03;;;14.01;100.00
64340;BME280;63709;53.258;-8.814;2023-04-01T01:12:13;100478.47;;;13.97;100.00
64340;BME280;63709;53.258;-8.814;2023-04-01T01:15:07;100472.78;;;13.72;100.00
64340;BME280;63709;53.258;-8.814;2023-04-01T01:26:39;100463.88;;;13.52;100.00
64340;BME280;63709;53.258;-8.814;2023-04-01T01:32:01;100495.50;;;13.59;100.00
64340;BME280;63709;53.258;-8.814;2023-04-01T01:35:04;100476.31;;;13.53;100.00
64340;BME280;63709;53.258;-8.814;2023-04-01T01:37:30;100487.03;;;13.63;100.00
64340;BME280;63709;53.258;-8.814;2023-04-01T01:40:00;100498.03;;;13.60;100.00
64340;BME280;63709;53.258;-8.814;2023-04-01T01:42:28;100506.91;;;13.61;100.00
64340;BME280;63709;53.258;-8.814;2023-04-01T01:44:57;100494.22;;;13.63;100.00
64340;BME280;63709;53.258;-8.814;2023-04-01T01:47:26;100509.59;;;13.61;100.00
64340;BME280;63709;53.258;-8.814;2023-04-01T01:49:54;100500.44;;;13.63;100.00
64340;BME280;63709;53.258;-8.814;2023-04-01T01:52:21;100501.00;;;13.67;100.00
64340;BME280;63709;53.258;-8.814;2023-04-01T01:54:56;100509.59;;;13.61;100.00
64340;BME280;63709;53.258;-8.814;2023-04-01T01:57:36;100503.81;;;13.55;100.00
64340;BME280;63709;53.258;-8.814;2023-04-01T02:00:08;100513.84;;;13.63;100.00
64340;BME280;63709;53.258;-8.814;2023-04-01T02:02:40;100523.28;;;13.67;100.00
64340;BME280;63709;53.258;-8.814;2023-04-01T02:05:09;100519.94;;;13.65;100.00
64340;BME280;63709;53.258;-8.814;2023-04-01T02:07:37;100515.25;;;13.67;100.00
64340;BME280;63709;53.258;-8.814;2023-04-01T02:10:06;100524.69;;;13.71;100.00
64340;BME280;63709;53.258;-8.814;2023-04-01T02:12:34;100527.94;;;13.75;100.00
64340;BME280;63709;53.258;-8.814;2023-04-01T02:15:12;100537.16;;;13.72;100.00
64340;BME280;63709;53.258;-8.814;2023-04-01T02:17:43;100531.47;;;13.75;100.00
64340;BME280;63709;53.258;-8.814;2023-04-01T02:20:20;100529.94;;;13.73;100.00
64340;BME280;63709;53.258;-8.814;2023-04-01T02:22:50;100532.47;;;13.74;100.00
64340;BME280;63709;53.258;-8.814;2023-04-01T02:25:20;100536.44;;;13.70;100.00
64340;BME280;63709;53.258;-8.814;2023-04-01T02:27:46;100531.91;;;13.71;100.00
64340;BME280;63709;53.258;-8.814;2023-04-01T02:30:14;100535.72;;;13.68;100.00
64340;BME280;63709;53.258;-8.814;2023-04-01T02:32:40;100545.88;;;13.74;100.00
64340;BME280;63709;53.258;-8.814;2023-04-01T02:35:10;100543.50;;;13.62;100.00
64340;BME280;63709;53.258;-8.814;2023-04-01T02:37:37;100562.00;;;13.65;100.00
64340;BME280;63709;53.258;-8.814;2023-04-01T02:40:06;100560.97;;;13.56;100.00
64340;BME280;63709;53.258;-8.814;2023-04-01T02:42:33;100556.63;;;13.55;100.00
64340;BME280;63709;53.258;-8.814;2023-04-01T02:44:58;100563.09;;;13.33;100.00
64340;BME280;63709;53.258;-8.814;2023-04-01T02:47:24;100556.34;;;13.39;100.00
64340;BME280;63709;53.258;-8.814;2023-04-01T02:49:51;100565.50;;;13.36;100.00
64340;BME280;63709;53.258;-8.814;2023-04-01T02:52:24;100568.44;;;13.33;100.00
64340;BME280;63709;53.258;-8.814;2023-04-01T02:54:51;100566.19;;;13.28;100.00
64340;BME280;63709;53.258;-8.814;2023-04-01T02:57:17;100563.34;;;13.20;100.00
64340;BME280;63709;53.258;-8.814;2023-04-01T02:59:44;100564.56;;;13.16;100.00
64340;BME280;63709;53.258;-8.814;2023-04-01T03:02:09;100584.03;;;13.18;100.00
64340;BME280;63709;53.258;-8.814;2023-04-01T03:04:35;100582.78;;;13.13;100.00
64340;BME280;63709;53.258;-8.814;2023-04-01T03:07:01;100583.06;;;13.10;100.00
64340;BME280;63709;53.258;-8.814;2023-04-01T03:09:27;100580.47;;;12.98;100.00
64340;BME280;63709;53.258;-8.814;2023-04-01T03:11:54;100588.09;;;13.03;100.00
64340;BME280;63709;53.258;-8.814;2023-04-01T03:14:20;100589.38;;;12.99;100.00
64340;BME280;63709;53.258;-8.814;2023-04-01T03:16:45;100586.81;;;12.97;100.00
64340;BME280;63709;53.258;-8.814;2023-04-01T03:19:13;100590.47;;;12.96;100.00
64340;BME280;63709;53.258;-8.814;2023-04-01T03:21:40;100601.75;;;13.00;100.00
64340;BME280;63709;53.258;-8.814;2023-04-01T03:24:08;100588.34;;;12.90;100.00
64340;BME280;63709;53.258;-8.814;2023-04-01T03:26:34;100589.19;;;12.91;100.00
64340;BME280;63709;53.258;-8.814;2023-04-01T03:28:59;100604.72;;;12.97;100.00
64340;BME280;63709;53.258;-8.814;2023-04-01T03:31:25;100598.94;;;12.92;100.00
64340;BME280;63709;53.258;-8.814;2023-04-01T03:33:51;100601.59;;;12.92;100.00
64340;BME280;63709;53.258;-8.814;2023-04-01T03:36:17;100608.13;;;12.99;100.00
64340;BME280;63709;53.258;-8.814;2023-04-01T03:38:43;100601.47;;;12.93;100.00
64340;BME280;63709;53.258;-8.814;2023-04-01T03:41:14;100610.50;;;12.92;100.00
64340;BME280;63709;53.258;-8.814;2023-04-01T03:43:40;100614.91;;;13.03;100.00
64340;BME280;63709;53.258;-8.814;2023-04-01T03:46:06;100619.16;;;13.05;100.00
64340;BME280;63709;53.258;-8.814;2023-04-01T03:48:31;100626.78;;;13.10;100.00
64340;BME280;63709;53.258;-8.814;2023-04-01T03:50:57;100625.78;;;13.11;100.00
64340;BME280;63709;53.258;-8.814;2023-04-01T03:53:26;100641.19;;;13.19;100.00
64340;BME280;63709;53.258;-8.814;2023-04-01T03:55:53;100646.88;;;13.25;100.00
64340;BME280;63709;53.258;-8.814;2023-04-01T03:58:19;100644.03;;;13.27;100.00
64340;BME280;63709;53.258;-8.814;2023-04-01T04:00:45;100652.38;;;13.24;100.00
64340;BME280;63709;53.258;-8.814;2023-04-01T04:03:12;100653.66;;;13.29;100.00
64340;BME280;63709;53.258;-8.814;2023-04-01T04:05:37;100654.97;;;13.35;100.00
64340;BME280;63709;53.258;-8.814;2023-04-01T04:08:03;100654.38;;;13.31;100.00
64340;BME280;63709;53.258;-8.814;2023-04-01T04:10:29;100651.41;;;13.35;100.00
64340;BME280;63709;53.258;-8.814;2023-04-01T04:12:55;100663.28;;;13.42;100.00
64340;BME280;63709;53.258;-8.814;2023-04-01T04:15:22;100666.38;;;13.37;100.00
64340;BME280;63709;53.258;-8.814;2023-04-01T04:17:48;100668.38;;;13.45;100.00
64340;BME280;63709;53.258;-8.814;2023-04-01T04:20:14;100676.28;;;13.46;100.00
64340;BME280;63709;53.258;-8.814;2023-04-01T04:22:40;100676.88;;;13.50;100.00
64340;BME280;63709;53.258;-8.814;2023-04-01T04:25:07;100688.44;;;13.50;100.00
64340;BME280;63709;53.258;-8.814;2023-04-01T04:27:33;100684.91;;;13.50;100.00
64340;BME280;63709;53.258;-8.814;2023-04-01T04:29:59;100689.28;;;13.51;100.00
64340;BME280;63709;53.258;-8.814;2023-04-01T04:32:24;100687.59;;;13.50;100.00
64340;BME280;63709;53.258;-8.814;2023-04-01T04:34:50;100702.00;;;13.59;100.00
64340;BME280;63709;53.258;-8.814;2023-04-01T04:37:15;100705.53;;;13.59;100.00
64340;BME280;63709;53.258;-8.814;2023-04-01T04:39:41;100697.16;;;13.52;100.00
64340;BME280;63709;53.258;-8.814;2023-04-01T04:42:10;100702.13;;;13.57;100.00
64340;BME280;63709;53.258;-8.814;2023-04-01T04:44:37;100701.00;;;13.50;100.00
64340;BME280;63709;53.258;-8.814;2023-04-01T04:47:02;100718.13;;;13.68;100.00
64340;BME280;63709;53.258;-8.814;2023-04-01T04:49:28;100718.13;;;13.68;100.00
64340;BME280;63709;53.258;-8.814;2023-04-01T04:51:54;100714.41;;;13.60;100.00
64340;BME280;63709;53.258;-8.814;2023-04-01T04:54:20;100729.53;;;13.70;100.00
64340;BME280;63709;53.258;-8.814;2023-04-01T04:56:45;100742.41;;;13.76;100.00
64340;BME280;63709;53.258;-8.814;2023-04-01T04:59:11;100743.81;;;13.71;100.00
64340;BME280;63709;53.258;-8.814;2023-04-01T05:01:38;100754.84;;;13.77;100.00
64340;BME280;63709;53.258;-8.814;2023-04-01T05:04:05;100755.94;;;13.75;100.00
64340;BME280;63709;53.258;-8.814;2023-04-01T05:06:31;100748.91;;;13.74;100.00
64340;BME280;63709;53.258;-8.814;2023-04-01T05:08:57;100757.94;;;13.73;100.00
64340;BME280;63709;53.258;-8.814;2023-04-01T05:11:23;100759.34;;;13.77;100.00
64340;BME280;63709;53.258;-8.814;2023-04-01T05:13:52;100772.34;;;13.82;100.00
64340;BME280;63709;53.258;-8.814;2023-04-01T05:16:20;100771.63;;;13.70;100.00
64340;BME280;63709;53.258;-8.814;2023-04-01T05:18:48;100773.00;;;13.64;100.00
64340;BME280;63709;53.258;-8.814;2023-04-01T05:21:14;100784.03;;;13.71;100.00
64340;BME280;63709;53.258;-8.814;2023-04-01T05:23:40;100782.34;;;13.70;100.00
64340;BME280;63709;53.258;-8.814;2023-04-01T05:26:13;100795.34;;;13.65;100.00
64340;BME280;63709;53.258;-8.814;2023-04-01T05:28:39;100800.69;;;13.65;100.00
64340;BME280;63709;53.258;-8.814;2023-04-01T05:31:06;100811.53;;;13.63;100.00
64340;BME280;63709;53.258;-8.814;2023-04-01T05:33:32;100817.44;;;13.57;100.00
64340;BME280;63709;53.258;-8.814;2023-04-01T05:36:09;100814.75;;;13.57;100.00
64340;BME280;63709;53.258;-8.814;2023-04-01T05:38:35;100819.25;;;13.47;100.00
64340;BME280;63709;53.258;-8.814;2023-04-01T05:41:02;100817.50;;;13.36;100.00
64340;BME280;63709;53.258;-8.814;2023-04-01T05:43:28;100836.13;;;13.38;100.00
64340;BME280;63709;53.258;-8.814;2023-04-01T05:45:57;100844.38;;;13.25;100.00
64340;BME280;63709;53.258;-8.814;2023-04-01T05:48:24;100849.47;;;13.28;100.00
64340;BME280;63709;53.258;-8.814;2023-04-01T05:50:49;100847.69;;;13.17;100.00
64340;BME280;63709;53.258;-8.814;2023-04-01T05:53:14;100847.81;;;13.16;100.00
64340;BME280;63709;53.258;-8.814;2023-04-01T05:55:40;100863.19;;;13.14;100.00
64340;BME280;63709;53.258;-8.814;2023-04-01T05:58:05;100856.75;;;13.05;100.00
64340;BME280;63709;53.258;-8.814;2023-04-01T06:00:32;100857.28;;;12.99;100.00
64340;BME280;63709;53.258;-8.814;2023-04-01T06:03:01;100876.63;;;13.02;100.00
64340;BME280;63709;53.258;-8.814;2023-04-01T06:05:42;100874.06;;;13.01;100.00
64340;BME280;63709;53.258;-8.814;2023-04-01T06:08:18;100881.16;;;13.02;100.00
64340;BME280;63709;53.258;-8.814;2023-04-01T06:35:30;100939.13;;;12.59;100.00
64340;BME280;63709;53.258;-8.814;2023-04-01T06:46:38;100962.13;;;12.62;100.00
64340;BME280;63709;53.258;-8.814;2023-04-01T06:54:42;100997.13;;;12.81;100.00
64340;BME280;63709;53.258;-8.814;2023-04-01T06:59:57;101004.94;;;12.84;100.00
64340;BME280;63709;53.258;-8.814;2023-04-01T07:02:35;101017.06;;;13.00;100.00
64340;BME280;63709;53.258;-8.814;2023-04-01T07:05:04;101020.50;;;13.02;100.00
64340;BME280;63709;53.258;-8.814;2023-04-01T07:07:48;101015.97;;;13.02;100.00
64340;BME280;63709;53.258;-8.814;2023-04-01T07:13:04;101018.50;;;13.04;100.00
64340;BME280;63709;53.258;-8.814;2023-04-01T07:15:38;101032.88;;;13.25;100.00
64340;BME280;63709;53.258;-8.814;2023-04-01T07:18:15;101039.41;;;13.32;100.00
64340;BME280;63709;53.258;-8.814;2023-04-01T07:20:43;101039.88;;;13.38;100.00
64340;BME280;63709;53.258;-8.814;2023-04-01T07:23:21;101041.31;;;13.42;100.00
64340;BME280;63709;53.258;-8.814;2023-04-01T07:25:53;101050.81;;;13.46;100.00
64340;BME280;63709;53.258;-8.814;2023-04-01T07:28:20;101058.09;;;13.55;100.00
64340;BME280;63709;53.258;-8.814;2023-04-01T07:33:33;101065.25;;;13.66;100.00
64340;BME280;63709;53.258;-8.814;2023-04-01T07:36:36;101076.03;;;13.75;100.00
64340;BME280;63709;53.258;-8.814;2023-04-01T07:42:04;101092.63;;;13.80;100.00
64340;BME280;63709;53.258;-8.814;2023-04-01T07:58:31;101125.81;;;14.00;100.00
64340;BME280;63709;53.258;-8.814;2023-04-01T08:06:40;101147.63;;;14.07;100.00
64340;BME280;63709;53.258;-8.814;2023-04-01T08:11:58;101152.19;;;14.16;100.00
64340;BME280;63709;53.258;-8.814;2023-04-01T08:15:05;101158.50;;;14.26;100.00
64340;BME280;63709;53.258;-8.814;2023-04-01T08:20:48;101168.63;;;14.23;100.00
64340;BME280;63709;53.258;-8.814;2023-04-01T08:23:19;101165.06;;;14.34;100.00
64340;BME280;63709;53.258;-8.814;2023-04-01T08:29:00;101194.78;;;14.42;100.00
64340;BME280;63709;53.258;-8.814;2023-04-01T08:31:39;101191.38;;;14.40;100.00
64340;BME280;63709;53.258;-8.814;2023-04-01T08:34:19;101198.69;;;14.70;100.00
64340;BME280;63709;53.258;-8.814;2023-04-01T08:37:11;101197.56;;;14.72;100.00
64340;BME280;63709;53.258;-8.814;2023-04-01T08:39:45;101204.38;;;14.76;100.00
64340;BME280;63709;53.258;-8.814;2023-04-01T08:43:23;101218.53;;;14.79;100.00
64340;BME280;63709;53.258;-8.814;2023-04-01T08:56:39;101236.66;;;14.86;100.00
64340;BME280;63709;53.258;-8.814;2023-04-01T09:21:15;101277.97;;;15.37;100.00
64340;BME280;63709;53.258;-8.814;2023-04-01T09:35:39;101311.25;;;15.36;100.00
64340;BME280;63709;53.258;-8.814;2023-04-01T09:41:12;101323.06;;;15.23;100.00
64340;BME280;63709;53.258;-8.814;2023-04-01T09:44:08;101323.34;;;15.20;100.00
64340;BME280;63709;53.258;-8.814;2023-04-01T09:55:53;101341.94;;;15.85;100.00
64340;BME280;63709;53.258;-8.814;2023-04-01T10:09:20;101379.03;;;15.30;100.00
64340;BME280;63709;53.258;-8.814;2023-04-01T10:26:52;101389.44;;;15.44;100.00
64340;BME280;63709;53.258;-8.814;2023-04-01T10:37:23;101419.00;;;15.76;100.00
64340;BME280;63709;53.258;-8.814;2023-04-01T10:48:56;101449.63;;;15.43;100.00
64340;BME280;63709;53.258;-8.814;2023-04-01T10:54:45;101446.53;;;15.47;100.00
64340;BME280;63709;53.258;-8.814;2023-04-01T10:57:37;101459.53;;;15.63;100.00
64340;BME280;63709;53.258;-8.814;2023-04-01T11:06:30;101476.69;;;16.14;100.00
64340;BME280;63709;53.258;-8.814;2023-04-01T11:09:02;101467.25;;;16.29;100.00
64340;BME280;63709;53.258;-8.814;2023-04-01T11:20:30;101497.00;;;16.28;100.00
64340;BME280;63709;53.258;-8.814;2023-04-01T11:23:22;101496.13;;;16.17;100.00
64340;BME280;63709;53.258;-8.814;2023-04-01T11:39:27;101519.47;;;16.78;100.00
64340;BME280;63709;53.258;-8.814;2023-04-01T11:48:07;101536.41;;;16.80;100.00
64340;BME280;63709;53.258;-8.814;2023-04-01T11:56:09;101556.50;;;15.94;100.00
64340;BME280;63709;53.258;-8.814;2023-04-01T11:58:59;101573.13;;;15.99;100.00
64340;BME280;63709;53.258;-8.814;2023-04-01T12:01:51;101584.31;;;15.94;100.00
64340;BME280;63709;53.258;-8.814;2023-04-01T12:12:42;101592.16;;;15.86;100.00
64340;BME280;63709;53.258;-8.814;2023-04-01T12:15:21;101584.53;;;16.33;100.00
64340;BME280;63709;53.258;-8.814;2023-04-01T12:20:37;101616.97;;;17.24;100.00
64340;BME280;63709;53.258;-8.814;2023-04-01T12:26:47;101616.44;;;17.39;100.00
64340;BME280;63709;53.258;-8.814;2023-04-01T12:46:05;101648.91;;;17.18;100.00
64340;BME280;63709;53.258;-8.814;2023-04-01T12:49:01;101662.75;;;16.95;100.00
64340;BME280;63709;53.258;-8.814;2023-04-01T12:54:29;101660.97;;;18.32;100.00
64340;BME280;63709;53.258;-8.814;2023-04-01T13:00:19;101670.06;;;17.73;93.25
64340;BME280;63709;53.258;-8.814;2023-04-01T13:06:25;101689.84;;;17.93;90.25
64340;BME280;63709;53.258;-8.814;2023-04-01T13:20:43;101715.72;;;18.05;98.53
64340;BME280;63709;53.258;-8.814;2023-04-01T13:23:37;101733.06;;;17.93;96.57
64340;BME280;63709;53.258;-8.814;2023-04-01T13:29:19;101736.75;;;17.32;93.80
64340;BME280;63709;53.258;-8.814;2023-04-01T13:37:59;101757.19;;;17.04;94.09
64340;BME280;63709;53.258;-8.814;2023-04-01T13:43:04;101769.97;;;17.02;100.00
64340;BME280;63709;53.258;-8.814;2023-04-01T13:50:49;101779.00;;;16.91;100.00
64340;BME280;63709;53.258;-8.814;2023-04-01T13:53:30;101795.69;;;16.85;100.00
64340;BME280;63709;53.258;-8.814;2023-04-01T13:59:15;101802.19;;;16.62;100.00
64340;BME280;63709;53.258;-8.814;2023-04-01T14:01:53;101805.28;;;16.46;100.00
64340;BME280;63709;53.258;-8.814;2023-04-01T14:04:50;101801.19;;;15.99;100.00
64340;BME280;63709;53.258;-8.814;2023-04-01T14:10:30;101825.56;;;15.63;100.00
64340;BME280;63709;53.258;-8.814;2023-04-01T14:13:15;101820.41;;;15.27;100.00
64340;BME280;63709;53.258;-8.814;2023-04-01T14:21:14;101856.09;;;15.17;100.00
64340;BME280;63709;53.258;-8.814;2023-04-01T14:26:29;101860.69;;;14.93;100.00
64340;BME280;63709;53.258;-8.814;2023-04-01T14:32:29;101864.56;;;15.24;100.00
64340;BME280;63709;53.258;-8.814;2023-04-01T14:37:25;101870.81;;;15.47;100.00
64340;BME280;63709;53.258;-8.814;2023-04-01T14:45:42;101899.47;;;15.70;100.00
64340;BME280;63709;53.258;-8.814;2023-04-01T14:48:39;101906.03;;;15.55;100.00
64340;BME280;63709;53.258;-8.814;2023-04-01T14:56:42;101905.25;;;15.66;100.00
64340;BME280;63709;53.258;-8.814;2023-04-01T14:59:29;101912.94;;;15.70;100.00
64340;BME280;63709;53.258;-8.814;2023-04-01T15:04:58;101913.44;;;16.20;100.00
64340;BME280;63709;53.258;-8.814;2023-04-01T15:10:43;101939.38;;;15.88;100.00
64340;BME280;63709;53.258;-8.814;2023-04-01T15:16:16;101947.31;;;15.67;100.00
64340;BME280;63709;53.258;-8.814;2023-04-01T15:29:47;101943.31;;;15.84;100.00
64340;BME280;63709;53.258;-8.814;2023-04-01T15:38:38;101946.94;;;16.28;100.00
64340;BME280;63709;53.258;-8.814;2023-04-01T15:41:11;101951.16;;;16.64;100.00
64340;BME280;63709;53.258;-8.814;2023-04-01T15:49:14;101966.25;;;17.31;100.00
64340;BME280;63709;53.258;-8.814;2023-04-01T15:52:01;101982.75;;;17.16;100.00
64340;BME280;63709;53.258;-8.814;2023-04-01T15:57:59;101988.81;;;16.65;100.00
64340;BME280;63709;53.258;-8.814;2023-04-01T16:20:46;102008.16;;;16.59;100.00
64340;BME280;63709;53.258;-8.814;2023-04-01T16:23:24;102022.41;;;16.50;100.00
64340;BME280;63709;53.258;-8.814;2023-04-01T16:26:01;102011.34;;;16.53;100.00
64340;BME280;63709;53.258;-8.814;2023-04-01T16:28:38;102012.97;;;16.44;100.00
64340;BME280;63709;53.258;-8.814;2023-04-01T16:36:29;102012.84;;;16.24;100.00
64340;BME280;63709;53.258;-8.814;2023-04-01T16:39:28;102006.13;;;16.18;100.00
64340;BME280;63709;53.258;-8.814;2023-04-01T16:42:22;102034.38;;;16.01;100.00
64340;BME280;63709;53.258;-8.814;2023-04-01T16:45:00;102041.09;;;15.84;100.00
64340;BME280;63709;53.258;-8.814;2023-04-01T16:47:46;102048.56;;;15.57;100.00
64340;BME280;63709;53.258;-8.814;2023-04-01T16:50:39;102053.16;;;15.19;100.00
64340;BME280;63709;53.258;-8.814;2023-04-01T16:58:41;102047.53;;;14.74;100.00
64340;BME280;63709;53.258;-8.814;2023-04-01T17:01:21;102068.25;;;14.85;100.00
64340;BME280;63709;53.258;-8.814;2023-04-01T17:03:57;102070.81;;;14.87;100.00
64340;BME280;63709;53.258;-8.814;2023-04-01T17:06:55;102077.88;;;14.76;100.00
64340;BME280;63709;53.258;-8.814;2023-04-01T17:09:37;102080.16;;;14.94;100.00
64340;BME280;63709;53.258;-8.814;2023-04-01T17:18:16;102081.97;;;15.06;100.00
64340;BME280;63709;53.258;-8.814;2023-04-01T17:20:59;102079.66;;;15.13;100.00
64340;BME280;63709;53.258;-8.814;2023-04-01T17:23:42;102079.66;;;15.13;100.00
64340;BME280;63709;53.258;-8.814;2023-04-01T17:42:04;102147.19;;;14.84;100.00
64340;BME280;63709;53.258;-8.814;2023-04-01T17:44:59;102151.09;;;14.80;100.00
64340;BME280;63709;53.258;-8.814;2023-04-01T17:47:49;102160.84;;;14.81;100.00
64340;BME280;63709;53.258;-8.814;2023-04-01T17:50:28;102158.81;;;14.85;100.00
64340;BME280;63709;53.258;-8.814;2023-04-01T17:53:12;102160.09;;;14.92;100.00
64340;BME280;63709;53.258;-8.814;2023-04-01T18:01:45;102167.31;;;14.91;100.00
64340;BME280;63709;53.258;-8.814;2023-04-01T18:04:37;102171.91;;;14.89;100.00
64340;BME280;63709;53.258;-8.814;2023-04-01T18:24:06;102206.88;;;15.02;100.00
64340;BME280;63709;53.258;-8.814;2023-04-01T18:26:38;102205.50;;;14.84;100.00
64340;BME280;63709;53.258;-8.814;2023-04-01T18:29:27;102214.41;;;14.84;100.00
64340;BME280;63709;53.258;-8.814;2023-04-01T18:35:12;102232.03;;;14.50;100.00
64340;BME280;63709;53.258;-8.814;2023-04-01T18:40:51;102240.47;;;14.44;100.00
64340;BME280;63709;53.258;-8.814;2023-04-01T18:43:37;102242.03;;;14.21;100.00
64340;BME280;63709;53.258;-8.814;2023-04-01T18:49:13;102262.44;;;14.23;100.00
64340;BME280;63709;53.258;-8.814;2023-04-01T18:54:33;102276.09;;;14.20;100.00
64340;BME280;63709;53.258;-8.814;2023-04-01T18:57:17;102288.75;;;14.18;100.00
64340;BME280;63709;53.258;-8.814;2023-04-01T18:59:55;102285.31;;;14.16;100.00
64340;BME280;63709;53.258;-8.814;2023-04-01T19:07:47;102302.31;;;14.17;100.00
64340;BME280;63709;53.258;-8.814;2023-04-01T19:10:31;102313.78;;;14.19;100.00
64340;BME280;63709;53.258;-8.814;2023-04-01T19:23:47;102324.16;;;13.84;100.00
64340;BME280;63709;53.258;-8.814;2023-04-01T19:26:47;102337.38;;;13.87;100.00
64340;BME280;63709;53.258;-8.814;2023-04-01T19:38:26;102358.69;;;13.61;100.00
64340;BME280;63709;53.258;-8.814;2023-04-01T19:46:48;102367.50;;;13.35;100.00
64340;BME280;63709;53.258;-8.814;2023-04-01T19:49:32;102371.28;;;13.16;100.00
64340;BME280;63709;53.258;-8.814;2023-04-01T19:52:22;102382.75;;;13.04;100.00
64340;BME280;63709;53.258;-8.814;2023-04-01T19:55:14;102383.53;;;13.06;100.00
64340;BME280;63709;53.258;-8.814;2023-04-01T19:58:24;102390.72;;;13.05;100.00
64340;BME280;63709;53.258;-8.814;2023-04-01T20:01:00;102395.00;;;13.08;100.00
64340;BME280;63709;53.258;-8.814;2023-04-01T20:09:11;102426.66;;;13.01;100.00
64340;BME280;63709;53.258;-8.814;2023-04-01T20:17:32;102424.31;;;12.81;100.00
64340;BME280;63709;53.258;-8.814;2023-04-01T20:28:01;102468.16;;;12.64;100.00
64340;BME280;63709;53.258;-8.814;2023-04-01T20:33:24;102482.19;;;12.53;100.00
64340;BME280;63709;53.258;-8.814;2023-04-01T20:39:15;102493.41;;;12.44;100.00
64340;BME280;63709;53.258;-8.814;2023-04-01T20:53:15;102504.69;;;12.02;100.00
64340;BME280;63709;53.258;-8.814;2023-04-01T21:12:12;102518.00;;;11.86;100.00
64340;BME280;63709;53.258;-8.814;2023-04-01T21:14:53;102529.59;;;11.86;100.00
64340;BME280;63709;53.258;-8.814;2023-04-01T21:28:24;102546.78;;;11.81;100.00
64340;BME280;63709;53.258;-8.814;2023-04-01T21:42:27;102528.53;;;11.72;100.00
64340;BME280;63709;53.258;-8.814;2023-04-01T21:59:46;102551.47;;;11.06;100.00
64340;BME280;63709;53.258;-8.814;2023-04-01T22:05:37;102563.28;;;10.83;100.00
64340;BME280;63709;53.258;-8.814;2023-04-01T22:14:28;102577.00;;;10.57;100.00
64340;BME280;63709;53.258;-8.814;2023-04-01T22:16:37;102574.09;;;10.43;100.00
64340;BME280;63709;53.258;-8.814;2023-04-01T22:19:20;102572.66;;;10.35;100.00
64340;BME280;63709;53.258;-8.814;2023-04-01T22:24:35;102587.94;;;10.51;100.00
64340;BME280;63709;53.258;-8.814;2023-04-01T22:27:18;102565.28;;;10.40;100.00
64340;BME280;63709;53.258;-8.814;2023-04-01T22:32:47;102525.00;;;10.26;100.00
64340;BME280;63709;53.258;-8.814;2023-04-01T22:40:47;102572.06;;;10.48;100.00
64340;BME280;63709;53.258;-8.814;2023-04-01T22:43:28;102575.81;;;10.44;100.00
64340;BME280;63709;53.258;-8.814;2023-04-01T22:48:54;102584.91;;;10.39;100.00
64340;BME280;63709;53.258;-8.814;2023-04-01T22:51:47;102589.16;;;10.23;100.00
64340;BME280;63709;53.258;-8.814;2023-04-01T22:54:28;102559.84;;;10.03;100.00
64340;BME280;63709;53.258;-8.814;2023-04-01T22:59:39;102596.47;;;9.99;100.00
64340;BME280;63709;53.258;-8.814;2023-04-01T23:02:18;102592.47;;;9.89;100.00
64340;BME280;63709;53.258;-8.814;2023-04-01T23:04:54;102601.63;;;9.83;100.00
64340;BME280;63709;53.258;-8.814;2023-04-01T23:09:58;102598.94;;;9.83;100.00
64340;BME280;63709;53.258;-8.814;2023-04-01T23:12:28;102593.53;;;9.85;100.00